Time;durP1;ratioP1;P1;durP2;ratioP2;P2;SDS_P1;SDS_P2;PMS_P1;PMS_P2;Temp;Humidity;BMP_temperature;BMP_pressure;BME280_temperature;BME280_humidity;BME280_pressure;Samples;Min_cycle;Max_cycle;Signal;HPM_P1;HPM_P2
2023/08/24 00:00:30;;;;;;;9.30;3.55;;;;;;;27.61;51.70;100849.28;5036435;28;20056;-62
2023/08/24 00:02:57;;;;;;;9.77;4.22;;;;;;;27.59;51.78;100851.72;5040276;28;20608;-62
2023/08/24 00:05:25;;;;;;;8.40;3.40;;;;;;;27.68;51.98;100852.00;5046351;28;20044;-62
2023/08/24 00:07:52;;;;;;;10.40;4.05;;;;;;;27.99;50.80;100847.09;5034866;28;20045;-63
2023/08/24 00:10:20;;;;;;;11.10;3.83;;;;;;;27.81;51.37;100838.84;5049667;28;20057;-62
2023/08/24 00:12:47;;;;;;;9.35;3.50;;;;;;;27.55;51.80;100831.97;5050617;28;20075;-62
2023/08/24 00:15:14;;;;;;;9.80;3.40;;;;;;;27.49;52.43;100839.34;5042854;28;20059;-63
2023/08/24 00:17:42;;;;;;;9.63;3.38;;;;;;;27.36;52.66;100835.47;5031623;28;20804;-62
2023/08/24 00:20:13;;;;;;;13.15;3.90;;;;;;;27.48;52.72;100834.09;5045154;28;20049;-63
2023/08/24 00:22:41;;;;;;;12.05;4.10;;;;;;;27.66;52.02;100843.13;5050036;28;20059;-63
2023/08/24 00:25:08;;;;;;;14.80;5.22;;;;;;;27.65;51.96;100833.06;5051912;28;20055;-63
2023/08/24 00:27:36;;;;;;;13.02;4.90;;;;;;;27.54;51.95;100840.88;5051835;28;20388;-63
2023/08/24 00:30:06;;;;;;;11.18;4.32;;;;;;;27.57;52.27;100851.34;5052053;28;20063;-62
2023/08/24 00:32:34;;;;;;;10.57;3.85;;;;;;;27.47;52.48;100847.47;5054715;28;20056;-62
2023/08/24 00:35:04;;;;;;;10.57;4.35;;;;;;;27.42;52.28;100852.78;5037704;28;20050;-62
2023/08/24 00:37:32;;;;;;;10.68;4.18;;;;;;;27.14;52.96;100856.75;5050891;28;20061;-62
2023/08/24 00:40:03;;;;;;;9.30;4.30;;;;;;;27.23;53.46;100850.56;5050763;28;20057;-62
2023/08/24 00:42:31;;;;;;;13.18;4.07;;;;;;;27.29;53.18;100854.53;5050678;28;20512;-62
2023/08/24 00:44:58;;;;;;;8.68;3.83;;;;;;;27.19;52.99;100847.78;5042599;28;20060;-63
2023/08/24 00:47:26;;;;;;;9.68;4.05;;;;;;;27.01;54.08;100844.38;5052205;28;20061;-62
2023/08/24 00:49:54;;;;;;;8.60;4.07;;;;;;;27.23;53.47;100844.91;5049515;28;20056;-63
2023/08/24 00:52:21;;;;;;;15.57;5.45;;;;;;;27.43;52.68;100846.69;5047557;28;20048;-62
2023/08/24 00:54:48;;;;;;;17.67;5.47;;;;;;;27.41;52.82;100845.50;5049219;28;20049;-62
2023/08/24 00:57:16;;;;;;;21.08;5.50;;;;;;;27.41;53.00;100843.47;5050237;28;20060;-62
2023/08/24 00:59:43;;;;;;;16.42;5.18;;;;;;;27.04;53.82;100845.56;5030164;28;20053;-62
2023/08/24 01:02:11;;;;;;;9.90;3.90;;;;;;;27.09;53.89;100850.75;5050263;28;20372;-63
2023/08/24 01:04:41;;;;;;;9.50;4.10;;;;;;;26.94;54.20;100852.13;5031008;28;20049;-62
2023/08/24 01:07:10;;;;;;;9.88;3.60;;;;;;;26.80;55.19;100855.13;5045410;28;20071;-62
2023/08/24 01:09:37;;;;;;;10.18;3.92;;;;;;;26.84;55.16;100853.06;5044246;28;20045;-62
2023/08/24 01:12:12;;;;;;;10.40;3.67;;;;;;;26.91;55.01;100850.94;5050637;28;20056;-62
2023/08/24 01:15:01;;;;;;;12.10;4.00;;;;;;;27.02;54.55;100848.81;5050163;28;20464;-62
2023/08/24 01:17:30;;;;;;;9.23;3.77;;;;;;;27.02;54.63;100845.19;5039918;28;20056;-62
2023/08/24 01:19:58;;;;;;;9.23;3.95;;;;;;;26.99;54.48;100840.38;5043506;28;20045;-63
2023/08/24 01:22:32;;;;;;;9.27;4.20;;;;;;;26.93;54.64;100836.38;5054108;28;20053;-62
2023/08/24 01:25:16;;;;;;;13.45;4.10;;;;;;;26.91;55.04;100838.84;5057375;28;20041;-62
2023/08/24 01:27:45;;;;;;;9.85;4.45;;;;;;;26.78;55.42;100832.91;5053450;28;20472;-61
2023/08/24 01:30:12;;;;;;;12.13;4.47;;;;;;;26.69;55.90;100840.31;5046793;28;20052;-61
2023/08/24 01:32:40;;;;;;;12.13;4.53;;;;;;;26.35;56.91;100826.06;5052253;28;20064;-61
2023/08/24 01:35:09;;;;;;;9.73;4.75;;;;;;;26.64;55.87;100828.19;5053852;28;20049;-62
2023/08/24 01:37:38;;;;;;;12.18;5.22;;;;;;;26.63;56.14;100831.44;5055109;28;20048;-62
2023/08/24 01:40:12;;;;;;;8.50;4.65;;;;;;;26.82;55.76;100827.22;5051089;28;20742;-61
2023/08/24 01:42:49;;;;;;;12.27;5.35;;;;;;;26.80;55.43;100829.69;5043651;28;20053;-63
2023/08/24 01:45:18;;;;;;;11.93;5.10;;;;;;;26.69;55.51;100820.53;5055022;28;20045;-63
2023/08/24 01:47:47;;;;;;;8.90;4.93;;;;;;;26.77;55.70;100813.56;5054320;28;20063;-61
2023/08/24 01:50:17;;;;;;;11.73;4.97;;;;;;;26.81;55.33;100803.03;5053442;28;20103;-62
2023/08/24 01:52:44;;;;;;;13.50;4.80;;;;;;;26.67;55.96;100804.75;5055460;28;20063;-63
2023/08/24 01:55:12;;;;;;;11.10;4.50;;;;;;;26.60;56.19;100806.84;5054027;28;20056;-63
2023/08/24 01:57:41;;;;;;;10.85;4.43;;;;;;;26.50;56.48;100800.06;5055178;28;20059;-62
2023/08/24 02:00:09;;;;;;;13.43;4.20;;;;;;;26.41;56.78;100802.59;5038775;28;20053;-62
2023/08/24 02:02:46;;;;;;;10.93;3.92;;;;;;;26.29;57.28;100800.28;5053448;28;20408;-62
2023/08/24 02:05:13;;;;;;;13.85;3.97;;;;;;;26.47;56.28;100795.28;5052319;28;20052;-62
2023/08/24 02:07:41;;;;;;;9.43;4.18;;;;;;;26.52;56.45;100796.84;5052250;28;20060;-63
2023/08/24 02:10:08;;;;;;;13.85;3.90;;;;;;;26.63;55.70;100792.69;5053577;28;20522;-61
2023/08/24 02:12:35;;;;;;;11.55;3.63;;;;;;;26.46;56.06;100781.56;5050908;28;20515;-61
2023/08/24 02:15:03;;;;;;;11.20;3.65;;;;;;;26.46;56.61;100788.03;5049821;28;20536;-64
2023/08/24 02:17:31;;;;;;;8.57;3.60;;;;;;;26.31;56.69;100789.38;5053410;28;20056;-62
2023/08/24 02:19:58;;;;;;;5.75;3.35;;;;;;;26.47;56.29;100788.81;5053691;28;20064;-61
2023/08/24 02:22:25;;;;;;;8.68;3.22;;;;;;;26.40;56.52;100786.88;5053237;28;20053;-62
2023/08/24 02:24:53;;;;;;;10.63;3.60;;;;;;;26.37;56.36;100782.06;5040395;28;20038;-62
2023/08/24 02:27:20;;;;;;;6.65;3.72;;;;;;;26.53;56.16;100775.84;5045929;28;20068;-62
2023/08/24 02:29:47;;;;;;;9.25;3.53;;;;;;;26.48;56.12;100776.31;5054362;28;20048;-62
2023/08/24 02:32:16;;;;;;;7.25;3.63;;;;;;;26.55;55.71;100777.00;5047959;28;20057;-62
2023/08/24 02:34:43;;;;;;;8.45;3.38;;;;;;;26.52;56.28;100782.69;5052574;28;20041;-62
2023/08/24 02:37:10;;;;;;;10.25;3.55;;;;;;;26.33;56.18;100772.00;5034660;28;20060;-62
2023/08/24 02:39:38;;;;;;;8.30;3.60;;;;;;;26.12;56.83;100772.22;5032947;28;20064;-63
2023/08/24 02:42:05;;;;;;;7.20;3.28;;;;;;;26.16;57.25;100767.34;5047742;28;20060;-63
2023/08/24 02:44:32;;;;;;;9.30;3.50;;;;;;;26.16;56.78;100753.22;5048538;28;20564;-63
2023/08/24 02:47:00;;;;;;;8.50;3.17;;;;;;;26.14;56.89;100752.84;5053983;28;20057;-63
2023/08/24 02:49:27;;;;;;;7.63;3.65;;;;;;;26.17;57.08;100752.03;5050189;28;20053;-63
2023/08/24 02:51:55;;;;;;;8.77;3.60;;;;;;;26.25;56.39;100750.72;5054076;28;20052;-62
2023/08/24 02:54:22;;;;;;;10.30;3.78;;;;;;;26.26;56.61;100749.50;5053645;28;20052;-62
2023/08/24 02:56:50;;;;;;;11.00;3.53;;;;;;;26.12;56.73;100739.13;5053634;28;20079;-63
2023/08/24 02:59:18;;;;;;;9.38;3.70;;;;;;;26.19;56.71;100741.91;5054045;28;20060;-62
2023/08/24 03:01:48;;;;;;;8.93;3.70;;;;;;;26.38;56.29;100741.28;5052137;28;20052;-61
2023/08/24 03:04:15;;;;;;;11.10;3.67;;;;;;;26.12;56.75;100732.69;5050209;28;20067;-62
2023/08/24 03:06:44;;;;;;;8.20;3.10;;;;;;;26.14;57.41;100725.41;5049139;28;20041;-62
2023/08/24 03:09:12;;;;;;;12.32;4.07;;;;;;;26.23;56.82;100730.56;5052487;28;20048;-62
2023/08/24 03:11:40;;;;;;;12.32;3.47;;;;;;;26.09;57.71;100720.22;5054367;28;20056;-62
2023/08/24 03:14:08;;;;;;;8.48;3.22;;;;;;;25.87;58.63;100718.81;5043489;28;20057;-62
2023/08/24 03:16:39;;;;;;;7.43;3.53;;;;;;;26.05;58.02;100715.81;5059753;28;20045;-62
2023/08/24 03:19:07;;;;;;;8.82;4.00;;;;;;;25.92;58.33;100717.53;5046627;28;20048;-62
2023/08/24 03:21:34;;;;;;;11.27;3.80;;;;;;;26.16;57.47;100710.88;5052920;28;20053;-63
2023/08/24 03:24:04;;;;;;;8.50;3.63;;;;;;;26.05;57.79;100712.97;5047495;28;20049;-64
2023/08/24 03:26:31;;;;;;;8.88;3.75;;;;;;;26.13;57.78;100709.69;5052990;28;20047;-62
2023/08/24 03:28:59;;;;;;;9.73;3.90;;;;;;;26.05;57.77;100713.78;5050498;28;20045;-61
2023/08/24 03:31:26;;;;;;;11.73;3.42;;;;;;;25.83;58.25;100715.19;5052603;28;20060;-62
2023/08/24 03:33:54;;;;;;;7.97;3.83;;;;;;;25.68;59.30;100716.53;5035094;28;20053;-63
2023/08/24 03:36:21;;;;;;;10.60;3.50;;;;;;;25.74;58.98;100726.16;5040533;28;20053;-61
2023/08/24 03:38:49;;;;;;;10.98;3.70;;;;;;;25.85;58.98;100715.59;5032741;28;20049;-63
2023/08/24 03:41:16;;;;;;;12.70;3.70;;;;;;;25.84;58.61;100716.00;5032048;28;20068;-62
2023/08/24 03:43:46;;;;;;;13.13;3.45;;;;;;;25.89;58.59;100710.69;5041307;28;20053;-62
2023/08/24 03:46:13;;;;;;;15.02;3.95;;;;;;;25.69;59.23;100706.03;5052955;28;20041;-62
2023/08/24 03:48:42;;;;;;;7.25;3.58;;;;;;;25.61;59.92;100702.50;5051051;28;20055;-62
2023/08/24 03:51:10;;;;;;;6.22;3.30;;;;;;;25.55;60.37;100715.44;5052008;28;20061;-62
2023/08/24 03:53:38;;;;;;;11.48;3.60;;;;;;;25.55;60.49;100704.16;5050263;28;20061;-63
2023/08/24 03:56:07;;;;;;;11.50;3.75;;;;;;;25.58;60.39;100697.66;5046799;28;20056;-63
2023/08/24 03:58:34;;;;;;;8.13;3.75;;;;;;;25.77;59.65;100701.97;5039452;28;20057;-62
2023/08/24 04:01:06;;;;;;;;;;;;;;;25.59;60.35;100704.94;5050791;28;20049;-61
2023/08/24 04:03:34;;;;;;;8.15;3.75;;;;;;;25.46;60.53;100696.16;5051947;28;19920;-62
2023/08/24 04:06:01;;;;;;;7.75;3.65;;;;;;;25.51;60.93;100701.34;5033003;28;20053;-63
2023/08/24 04:08:29;;;;;;;6.95;3.67;;;;;;;25.39;61.23;100704.66;5032837;28;20049;-61
2023/08/24 04:10:57;;;;;;;11.98;3.95;;;;;;;25.48;61.27;100705.00;5043140;28;20048;-63
2023/08/24 04:13:24;;;;;;;10.13;3.70;;;;;;;25.55;61.31;100698.50;5050447;28;20056;-62
2023/08/24 04:15:51;;;;;;;10.52;3.90;;;;;;;25.54;61.38;100694.09;5050368;28;20060;-65
2023/08/24 04:18:19;;;;;;;9.07;4.30;;;;;;;25.55;61.17;100692.84;5052150;28;20049;-62
2023/08/24 04:20:48;;;;;;;9.73;3.70;;;;;;;25.33;61.98;100685.75;5033928;28;20052;-62
2023/08/24 04:23:16;;;;;;;6.78;3.70;;;;;;;25.36;62.24;100693.38;5052225;28;20283;-62
2023/08/24 04:25:43;;;;;;;8.13;4.25;;;;;;;25.20;62.96;100699.53;5047227;28;20052;-62
2023/08/24 04:28:11;;;;;;;12.20;3.60;;;;;;;25.21;62.63;100686.25;5047503;28;20052;-62
2023/08/24 04:30:39;;;;;;;10.30;3.78;;;;;;;25.18;63.05;100689.88;5051414;28;20049;-62
2023/08/24 04:33:06;;;;;;;10.68;4.40;;;;;;;25.22;63.19;100688.66;5034318;28;20068;-63
2023/08/24 04:35:35;;;;;;;10.05;4.10;;;;;;;25.40;62.23;100680.88;5042330;28;20066;-63
2023/08/24 04:38:03;;;;;;;10.53;4.40;;;;;;;25.37;62.21;100669.63;5051865;28;20053;-61
2023/08/24 04:40:48;;;;;;;13.70;4.43;;;;;;;25.25;61.94;100676.53;5042198;28;20057;-62
2023/08/24 04:43:15;;;;;;;8.90;3.75;;;;;;;25.23;62.59;100672.50;5037606;28;20057;-62
2023/08/24 04:45:43;;;;;;;9.82;4.50;;;;;;;25.25;62.40;100664.44;5051863;28;20041;-63
2023/08/24 04:48:10;;;;;;;9.73;4.07;;;;;;;25.19;62.18;100672.53;5050529;28;20064;-62
2023/08/24 04:50:38;;;;;;;11.65;4.50;;;;;;;25.22;62.05;100662.47;5050946;28;20037;-62
2023/08/24 04:53:05;;;;;;;11.98;3.70;;;;;;;25.28;62.14;100667.25;5051821;28;20064;-61
2023/08/24 04:55:33;;;;;;;8.30;4.18;;;;;;;25.24;62.45;100657.22;5047054;28;20045;-62
2023/08/24 04:58:00;;;;;;;16.33;4.07;;;;;;;25.25;62.15;100659.63;5037256;28;20083;-61
2023/08/24 05:00:27;;;;;;;10.43;4.10;;;;;;;25.28;61.73;100658.00;5038838;28;20037;-62
2023/08/24 05:02:55;;;;;;;13.70;4.07;;;;;;;25.19;61.13;100671.75;5051149;28;20068;-62
2023/08/24 05:05:22;;;;;;;8.00;3.85;;;;;;;25.34;61.05;100674.06;5054886;28;20052;-63
2023/08/24 05:07:50;;;;;;;11.52;3.80;;;;;;;25.17;60.80;100665.72;5055290;28;20053;-62
2023/08/24 05:10:17;;;;;;;6.82;3.65;;;;;;;25.20;60.99;100668.53;5054671;28;20052;-62
2023/08/24 05:12:45;;;;;;;7.97;3.65;;;;;;;25.17;60.68;100660.09;5054349;28;20598;-62
2023/08/24 05:15:13;;;;;;;11.60;3.80;;;;;;;25.14;60.78;100656.06;5055954;28;20056;-62
2023/08/24 05:17:40;;;;;;;8.63;3.88;;;;;;;25.17;60.80;100672.19;5046405;28;20053;-63
2023/08/24 05:20:10;;;;;;;10.00;3.50;;;;;;;24.97;61.27;100670.28;5036642;28;20046;-62
2023/08/24 05:22:38;;;;;;;7.97;4.03;;;;;;;25.05;60.97;100669.03;5055369;28;20052;-63
2023/08/24 05:25:06;;;;;;;9.60;3.70;;;;;;;25.02;61.22;100669.88;5077554;28;20064;-62
2023/08/24 05:27:33;;;;;;;10.30;4.13;;;;;;;24.95;61.27;100678.38;5055569;28;20044;-63
2023/08/24 05:30:00;;;;;;;11.13;3.83;;;;;;;24.99;61.42;100682.75;5055111;28;20052;-62
2023/08/24 05:32:28;;;;;;;12.60;4.10;;;;;;;25.03;61.52;100679.91;5055704;28;20049;-62
2023/08/24 05:34:55;;;;;;;9.25;4.10;;;;;;;25.03;61.14;100675.09;5052592;28;20048;-62
2023/08/24 05:37:23;;;;;;;11.18;3.83;;;;;;;25.05;61.03;100660.56;5039833;28;20534;-62
2023/08/24 05:39:51;;;;;;;9.35;3.70;;;;;;;25.23;60.29;100664.06;5034738;28;20056;-62
2023/08/24 05:42:18;;;;;;;10.68;3.75;;;;;;;25.24;60.07;100660.84;5035438;28;20052;-61
2023/08/24 05:44:45;;;;;;;10.95;4.20;;;;;;;25.10;60.51;100662.94;5046795;28;20057;-63
2023/08/24 05:47:13;;;;;;;12.32;4.43;;;;;;;25.09;61.02;100644.44;5045269;28;20388;-62
2023/08/24 05:49:40;;;;;;;8.00;3.80;;;;;;;25.15;60.33;100639.97;5036671;28;20049;-63
2023/08/24 05:52:08;;;;;;;9.13;4.45;;;;;;;25.21;60.16;100639.09;5037343;28;20056;-62
2023/08/24 05:54:38;;;;;;;11.25;4.20;;;;;;;25.30;60.35;100641.44;5055874;28;20510;-62
2023/08/24 05:57:05;;;;;;;9.52;4.03;;;;;;;25.32;60.06;100630.56;5058058;28;20044;-62
2023/08/24 05:59:33;;;;;;;11.85;4.57;;;;;;;25.30;59.46;100624.53;5059534;28;20041;-61
2023/08/24 06:02:00;;;;;;;12.77;4.20;;;;;;;25.41;59.05;100625.28;5075223;28;20060;-62
2023/08/24 06:04:28;;;;;;;12.27;3.85;;;;;;;25.37;59.26;100625.31;5054789;28;20052;-63
2023/08/24 06:06:55;;;;;;;10.93;4.28;;;;;;;25.23;59.52;100638.69;5053827;28;20041;-62
2023/08/24 06:09:23;;;;;;;11.73;3.88;;;;;;;25.16;59.99;100633.91;5039046;28;20520;-63
2023/08/24 06:11:51;;;;;;;10.05;3.70;;;;;;;25.10;60.19;100641.22;5055481;28;20036;-62
2023/08/24 06:14:18;;;;;;;15.93;3.78;;;;;;;25.11;60.23;100650.44;5055003;28;20068;-63
2023/08/24 06:16:45;;;;;;;10.13;4.00;;;;;;;25.25;59.29;100647.53;5054632;28;20476;-62
2023/08/24 06:19:13;;;;;;;11.30;4.20;;;;;;;25.29;59.23;100645.50;5054935;28;20055;-63
2023/08/24 06:21:40;;;;;;;13.57;4.47;;;;;;;25.22;59.41;100652.00;5055168;28;20404;-62
2023/08/24 06:24:07;;;;;;;16.58;4.43;;;;;;;25.36;59.05;100649.09;5050894;28;20067;-62
2023/08/24 06:26:34;;;;;;;11.55;4.35;;;;;;;25.30;59.04;100664.00;5054485;28;20045;-62
2023/08/24 06:29:02;;;;;;;9.18;4.05;;;;;;;25.40;58.77;100657.53;5054500;28;20056;-63
2023/08/24 06:31:31;;;;;;;14.30;4.35;;;;;;;25.51;58.61;100658.22;5052809;28;20057;-64
2023/08/24 06:33:58;;;;;;;12.50;4.28;;;;;;;25.50;58.15;100653.81;5054985;28;20053;-62
2023/08/24 06:36:26;;;;;;;13.98;3.95;;;;;;;25.61;58.10;100648.88;5053070;28;20041;-63
2023/08/24 06:38:53;;;;;;;14.75;4.28;;;;;;;25.33;58.10;100652.69;5054723;28;20060;-63
2023/08/24 06:41:20;;;;;;;12.85;4.28;;;;;;;25.34;58.63;100648.69;5050139;28;20045;-62
2023/08/24 06:43:48;;;;;;;7.55;4.13;;;;;;;25.48;58.89;100647.78;5054269;28;20076;-61
2023/08/24 06:46:15;;;;;;;7.85;4.13;;;;;;;25.36;58.22;100642.63;5054222;28;20056;-63
2023/08/24 06:48:44;;;;;;;10.55;3.83;;;;;;;25.46;57.96;100639.75;5054415;28;20048;-62
2023/08/24 06:51:11;;;;;;;8.68;4.00;;;;;;;25.59;58.42;100637.22;5054506;28;20052;-61
2023/08/24 06:53:39;;;;;;;10.85;3.67;;;;;;;25.77;57.72;100635.00;5052287;28;20044;-62
2023/08/24 06:56:06;;;;;;;16.02;4.47;;;;;;;25.96;56.92;100628.75;5047690;28;20045;-62
2023/08/24 06:58:34;;;;;;;13.70;3.80;;;;;;;25.89;56.59;100636.53;5042891;28;20412;-61
2023/08/24 07:01:05;;;;;;;8.13;3.47;;;;;;;26.17;56.58;100639.84;5047794;28;20056;-61
2023/08/24 07:03:33;;;;;;;14.65;4.68;;;;;;;26.70;56.01;100646.88;5047052;28;20060;-36
2023/08/24 07:06:00;;;;;;;7.78;3.90;;;;;;;27.02;54.81;100644.41;5032335;28;20064;-36
2023/08/24 07:08:28;;;;;;;8.68;3.90;;;;;;;27.06;53.68;100645.19;5045203;28;20492;-36
2023/08/24 07:10:55;;;;;;;19.88;4.32;;;;;;;27.07;53.66;100650.41;5043779;28;20056;-35
2023/08/24 07:13:23;;;;;;;15.05;4.72;;;;;;;27.15;53.94;100648.25;5065119;28;20063;-35
2023/08/24 07:15:50;;;;;;;12.60;4.05;;;;;;;27.23;53.22;100644.09;5040567;28;20441;-36
2023/08/24 07:18:18;;;;;;;10.82;4.13;;;;;;;27.27;53.41;100630.69;5044188;28;20045;-35
2023/08/24 07:20:45;;;;;;;14.00;4.47;;;;;;;27.29;53.49;100634.72;5045524;28;20049;-36
2023/08/24 07:23:13;;;;;;;7.40;3.50;;;;;;;27.27;54.80;100628.66;5041632;28;20061;-36
2023/08/24 07:25:41;;;;;;;11.73;4.28;;;;;;;27.27;54.41;100622.19;5044400;28;20595;-34
2023/08/24 07:28:08;;;;;;;22.30;4.47;;;;;;;27.24;54.25;100629.53;5041381;28;20057;-36
2023/08/24 07:30:36;;;;;;;12.35;4.38;;;;;;;27.09;54.50;100624.53;5028406;28;20172;-35
2023/08/24 07:33:04;;;;;;;13.13;3.97;;;;;;;27.16;54.31;100616.72;5047431;28;20543;-36
2023/08/24 07:35:32;;;;;;;10.15;4.20;;;;;;;27.35;53.80;100618.06;5048625;28;20727;-36
2023/08/24 07:38:00;;;;;;;9.85;4.10;;;;;;;27.30;54.28;100613.66;5042746;28;20049;-37
2023/08/24 07:40:27;;;;;;;11.27;4.35;;;;;;;27.19;54.20;100603.75;5047501;28;20045;-38
2023/08/24 07:42:56;;;;;;;13.73;4.20;;;;;;;26.90;55.16;100606.22;5045244;28;20057;-37
2023/08/24 07:45:24;;;;;;;14.57;3.93;;;;;;;26.62;55.51;100617.91;5047894;28;20057;-38
2023/08/24 07:47:51;;;;;;;11.30;3.95;;;;;;;26.93;55.14;100616.69;5049168;28;20362;-37
2023/08/24 07:50:20;;;;;;;9.98;4.30;;;;;;;27.22;53.99;100608.53;5046045;28;20513;-39
2023/08/24 07:52:47;;;;;;;11.38;3.70;;;;;;;27.40;53.50;100592.09;5043722;28;20507;-38
2023/08/24 07:55:16;;;;;;;11.90;3.50;;;;;;;27.24;54.03;100592.75;5046639;28;20409;-38
2023/08/24 07:57:43;;;;;;;8.60;4.18;;;;;;;27.15;54.24;100584.00;5043904;28;20056;-38
2023/08/24 08:00:13;;;;;;;12.55;4.40;;;;;;;27.36;53.60;100580.03;5040189;28;20059;-38
2023/08/24 08:02:40;;;;;;;;;;;;;;;27.36;53.97;100563.88;5042555;28;20064;-38
2023/08/24 08:05:10;;;;;;;13.32;4.55;;;;;;;27.27;54.71;100574.91;5046490;28;19927;-36
2023/08/24 08:07:37;;;;;;;13.85;4.05;;;;;;;27.02;55.26;100565.25;5054743;28;20053;-37
2023/08/24 08:10:06;;;;;;;11.73;4.10;;;;;;;27.27;54.40;100566.41;5041111;28;20420;-38
2023/08/24 08:12:34;;;;;;;14.98;4.57;;;;;;;27.37;54.14;100576.00;5040945;28;20045;-38
2023/08/24 08:15:02;;;;;;;10.32;4.00;;;;;;;27.60;52.70;100590.91;5038780;28;20061;-38
2023/08/24 08:17:30;;;;;;;9.45;3.65;;;;;;;27.76;52.73;100607.22;5043513;28;20037;-39
2023/08/24 08:19:58;;;;;;;10.20;4.00;;;;;;;28.08;51.90;100607.44;5044207;28;20064;-37
2023/08/24 08:22:25;;;;;;;10.30;3.90;;;;;;;28.12;51.74;100591.19;5045956;28;20056;-42
2023/08/24 08:24:58;;;;;;;13.85;4.35;;;;;;;27.92;50.88;100589.53;5041263;28;20128;-38
2023/08/24 08:27:26;;;;;;;12.30;4.03;;;;;;;27.88;50.93;100594.47;5041623;28;20053;-38
2023/08/24 08:29:53;;;;;;;9.98;3.80;;;;;;;27.55;51.23;100596.28;5058024;28;20057;-38
2023/08/24 08:32:20;;;;;;;13.07;4.03;;;;;;;27.22;52.79;100617.03;5042967;28;20065;-42
2023/08/24 08:34:48;;;;;;;13.40;4.10;;;;;;;26.80;54.56;100623.34;5043874;28;20068;-40
2023/08/24 08:37:15;;;;;;;11.50;3.97;;;;;;;26.73;55.42;100612.91;5045007;28;20053;-39
2023/08/24 08:39:43;;;;;;;13.70;3.83;;;;;;;26.87;54.43;100620.41;5041334;28;20049;-39
2023/08/24 08:42:13;;;;;;;13.23;4.32;;;;;;;26.79;54.00;100627.38;5041411;28;20083;-41
2023/08/24 08:44:43;;;;;;;9.07;4.10;;;;;;;26.83;54.24;100634.59;5037044;28;20049;-39
2023/08/24 08:47:11;;;;;;;10.38;4.05;;;;;;;26.88;53.32;100647.44;5040755;28;20063;-38
2023/08/24 08:49:39;;;;;;;10.25;4.20;;;;;;;26.81;53.75;100639.06;5044177;28;20112;-44
2023/08/24 08:52:07;;;;;;;10.60;4.05;;;;;;;26.97;53.33;100630.75;5048208;28;20045;-38
2023/08/24 08:54:34;;;;;;;14.32;3.97;;;;;;;27.21;52.82;100640.88;5042993;28;20060;-34
2023/08/24 08:57:02;;;;;;;18.23;4.13;;;;;;;27.06;52.68;100648.00;5039562;28;20056;-38
2023/08/24 08:59:30;;;;;;;14.95;4.57;;;;;;;26.95;53.72;100642.50;5009504;28;20037;-36
2023/08/24 09:01:58;;;;;;;13.13;5.00;;;;;;;26.60;56.20;100642.97;5044074;28;20049;-35
2023/08/24 09:04:26;;;;;;;16.55;5.43;;;;;;;26.30;58.78;100623.97;5043740;28;20132;-35
2023/08/24 09:06:54;;;;;;;13.82;4.93;;;;;;;26.14;59.59;100601.16;5045930;28;20052;-35
2023/08/24 09:09:22;;;;;;;25.30;5.55;;;;;;;26.04;60.22;100582.34;5041181;28;20048;-35
2023/08/24 09:11:50;;;;;;;13.43;5.18;;;;;;;26.08;60.03;100583.06;5042289;28;20107;-35
2023/08/24 09:14:17;;;;;;;17.25;5.53;;;;;;;25.93;60.55;100578.00;5041634;28;20159;-35
2023/08/24 09:16:45;;;;;;;15.52;4.95;;;;;;;26.13;60.19;100582.63;5044261;28;20060;-34
2023/08/24 09:19:12;;;;;;;17.92;5.65;;;;;;;26.19;60.03;100595.06;5045239;28;20052;-35
2023/08/24 09:21:41;;;;;;;25.52;6.55;;;;;;;26.01;60.06;100605.75;5040430;28;20060;-35
2023/08/24 09:24:10;;;;;;;24.33;5.57;;;;;;;26.36;59.42;100601.72;5050487;28;20084;-35
2023/08/24 09:26:42;;;;;;;18.60;5.13;;;;;;;26.69;58.13;100609.38;5039686;28;20049;-35
2023/08/24 09:29:15;;;;;;;14.05;5.43;;;;;;;26.32;58.75;100623.56;5037015;28;20537;-34
2023/08/24 09:31:43;;;;;;;13.45;4.72;;;;;;;26.40;58.08;100639.16;5042859;28;20511;-36
2023/08/24 09:34:11;;;;;;;14.75;5.50;;;;;;;26.63;57.84;100661.88;5045566;28;20052;-38
2023/08/24 09:36:40;;;;;;;12.88;4.90;;;;;;;26.37;58.37;100656.97;5042139;28;20050;-38
2023/08/24 09:39:07;;;;;;;18.50;5.78;;;;;;;26.41;57.70;100660.56;5040115;28;20370;-39
2023/08/24 09:41:39;;;;;;;16.02;4.72;;;;;;;26.24;58.37;100645.41;5035370;28;20783;-38
2023/08/24 09:44:11;;;;;;;19.65;5.68;;;;;;;26.68;57.63;100644.50;5044422;28;20159;-34
2023/08/24 09:46:40;;;;;;;13.85;4.60;;;;;;;26.62;57.14;100661.06;5047744;28;20048;-34
2023/08/24 09:49:09;;;;;;;15.60;5.38;;;;;;;26.60;57.19;100671.22;5044017;28;20060;-34
2023/08/24 09:51:37;;;;;;;14.07;5.00;;;;;;;26.44;57.15;100665.38;5041869;28;20053;-34
2023/08/24 09:54:08;;;;;;;13.85;4.78;;;;;;;26.28;57.17;100673.63;5045878;28;20053;-35
2023/08/24 09:56:40;;;;;;;19.60;4.82;;;;;;;26.25;57.34;100663.97;5047494;28;20052;-34
2023/08/24 09:59:19;;;;;;;15.70;4.95;;;;;;;26.45;57.22;100681.88;5042430;28;20041;-35
2023/08/24 10:01:48;;;;;;;10.02;4.40;;;;;;;26.48;57.34;100686.69;5042192;28;20428;-36
2023/08/24 10:04:25;;;;;;;13.20;4.65;;;;;;;26.22;57.53;100695.88;5039033;28;20057;-35
2023/08/24 10:07:02;;;;;;;12.88;4.78;;;;;;;26.10;58.77;100687.94;5036900;28;20064;-40
2023/08/24 10:10:00;;;;;;;18.45;4.57;;;;;;;26.15;58.69;100679.00;5056544;28;20050;-43
2023/08/24 10:12:28;;;;;;;13.95;6.55;;;;;;;26.03;58.10;100679.53;5044886;28;20045;-35
2023/08/24 10:15:03;;;;;;;14.85;6.40;;;;;;;26.32;57.99;100668.75;5046223;28;20052;-35
2023/08/24 10:17:33;;;;;;;13.48;5.40;;;;;;;26.05;58.51;100665.00;5051529;28;20057;-34
2023/08/24 10:20:08;;;;;;;15.20;4.80;;;;;;;26.15;57.92;100661.28;5045926;28;20049;-36
2023/08/24 10:22:37;;;;;;;10.10;4.57;;;;;;;26.12;57.80;100650.81;5031290;28;20064;-34
2023/08/24 10:25:05;;;;;;;12.93;4.95;;;;;;;26.22;57.13;100645.03;5045707;28;20064;-35
2023/08/24 10:27:33;;;;;;;13.13;4.47;;;;;;;26.58;56.91;100640.56;5045409;28;20059;-35
2023/08/24 10:30:00;;;;;;;10.30;4.70;;;;;;;26.40;56.63;100648.47;5047257;28;20046;-35
2023/08/24 10:32:28;;;;;;;14.43;4.82;;;;;;;26.07;56.93;100663.38;5047039;28;20049;-35
2023/08/24 10:34:55;;;;;;;8.27;4.40;;;;;;;26.29;57.04;100669.59;5042842;28;20072;-34
2023/08/24 10:37:27;;;;;;;16.98;5.45;;;;;;;26.27;57.51;100678.50;5039396;28;20523;-35
2023/08/24 10:39:54;;;;;;;33.00;21.48;;;;;;;26.18;57.06;100683.81;5044955;28;20075;-35
2023/08/24 10:42:22;;;;;;;22.40;14.93;;;;;;;26.38;57.07;100689.63;5045571;28;20053;-35
2023/08/24 10:44:50;;;;;;;14.85;6.53;;;;;;;26.29;57.16;100701.44;5050961;28;20052;-35
2023/08/24 10:47:17;;;;;;;9.32;4.78;;;;;;;26.34;57.16;100706.63;5047872;28;20061;-34
2023/08/24 10:49:56;;;;;;;10.30;4.43;;;;;;;26.14;57.80;100724.59;5045320;28;20064;-35
2023/08/24 10:52:31;;;;;;;10.65;4.43;;;;;;;26.13;58.03;100723.00;5051144;28;20688;-34
2023/08/24 10:55:02;;;;;;;12.50;4.93;;;;;;;26.13;57.68;100729.47;5063848;28;20045;-35
2023/08/24 10:57:37;;;;;;;13.95;6.30;;;;;;;26.08;57.68;100720.63;5047121;28;20041;-35
2023/08/24 11:00:10;;;;;;;10.82;4.63;;;;;;;26.04;57.95;100728.34;5049054;28;20052;-35
2023/08/24 11:02:42;;;;;;;15.30;7.15;;;;;;;25.89;58.16;100729.66;5045798;28;20663;-36
2023/08/24 11:05:16;;;;;;;15.63;4.80;;;;;;;25.92;58.18;100712.69;5041534;28;20519;-35
2023/08/24 11:07:50;;;;;;;12.65;4.50;;;;;;;26.06;58.30;100718.25;5040798;28;20253;-35
2023/08/24 11:10:18;;;;;;;14.18;4.45;;;;;;;26.13;57.76;100711.72;5042812;28;20048;-36
2023/08/24 11:13:06;;;;;;;24.30;16.35;;;;;;;26.39;56.76;100716.69;5040036;28;20111;-35
2023/08/24 11:15:39;;;;;;;23.02;12.70;;;;;;;26.49;56.98;100719.38;5029457;28;20052;-35
2023/08/24 11:18:12;;;;;;;12.45;5.40;;;;;;;26.25;57.03;100720.47;5040723;28;20575;-36
2023/08/24 11:20:54;;;;;;;8.93;4.65;;;;;;;26.28;56.92;100725.25;5043328;28;20435;-35
2023/08/24 11:23:22;;;;;;;16.88;5.78;;;;;;;26.23;57.33;100728.56;5039508;28;20064;-35
2023/08/24 11:25:54;;;;;;;41.17;14.05;;;;;;;26.83;58.12;100756.16;5042533;28;20049;-35